< < Back
Terminal Aerodrome Forecast


Current Version              Previous Versions:   1  2  3  4  5  6  7  8  9  

Terminal Aerodrome Forecast

229
FTUS42 KCHS 291400 AAB
TAFSAV
TAF AMD
KSAV 291458Z 2915/3012 02007KT P6SM FEW080
     FM291800 VRB05KT P6SM SCT080
     FM300100 00000KT P6SM FEW060=



Latest METAR

476
SAUS80 KWBC 300700
MTRSAV
METAR KSAV 300653Z AUTO 31004KT 10SM BKN070 24/18 A2995 RMK AO2 SLP139
T02440178 TSNO


USA.gov is the U.S. government's official web portal to all federal, state and local government web resources and services.